Terminal Aerodrome Forecast
Issued by NWS

Home | Current Version | Previous Version | Text Only | Print | Product List | Glossary On
Versions: 1 2 3 4 5 6 7 8 9 10 11 12 13 14 15 16 17 18 19 20 21 22 23 24 25 26 27
000
FTUS45 KPSR 021700
TAFPHX
TAF
KPHX 021721Z 0218/0318 25014KT P6SM -RA SCT025 OVC035
      TEMPO 0218/0221 21016G26KT 4SM RA BR BKN015 OVC030
     FM022300 23008KT P6SM VCSH SCT015 BKN050 BKN250
     FM030400 11006KT P6SM BKN060=

USA.gov is the U.S. government's official web portal to all federal, state and local government web resources and services.